Time;durP1;ratioP1;P1;durP2;ratioP2;P2;SDS_P1;SDS_P2;PMS_P1;PMS_P2;Temp;Humidity;BMP_temperature;BMP_pressure;BME280_temperature;BME280_humidity;BME280_pressure;Samples;Min_cycle;Max_cycle;Signal;HPM_P1;HPM_P2
2021/08/31 00:00:43;;;;;;;24.30;17.00;;;;;;;19.80;100.00;99371.38;5024661;28;20047;-44
2021/08/31 00:03:09;;;;;;;27.50;18.02;;;;;;;19.78;99.97;99362.72;5032584;28;20048;-46
2021/08/31 00:05:35;;;;;;;23.08;16.67;;;;;;;19.69;100.00;99355.50;5036022;28;20041;-45
2021/08/31 00:08:01;;;;;;;23.85;17.77;;;;;;;19.70;100.00;99351.09;5043802;28;20472;-44
2021/08/31 00:10:27;;;;;;;27.27;18.67;;;;;;;19.79;100.00;99367.03;5039552;28;20365;-45
2021/08/31 00:12:52;;;;;;;24.88;16.85;;;;;;;19.78;100.00;99372.47;5031196;28;20402;-46
2021/08/31 00:15:18;;;;;;;24.23;17.75;;;;;;;19.80;99.75;99378.44;5037415;28;20072;-43
2021/08/31 00:17:44;;;;;;;25.55;18.15;;;;;;;19.74;99.32;99360.44;5049552;28;20040;-44
2021/08/31 00:20:11;;;;;;;27.92;18.08;;;;;;;19.81;98.75;99372.22;5052421;28;20036;-44
2021/08/31 00:22:37;;;;;;;26.67;18.08;;;;;;;19.71;98.55;99363.31;5034732;28;20063;-44
2021/08/31 00:25:05;;;;;;;27.55;17.98;;;;;;;19.79;98.29;99388.13;5031011;28;20087;-43
2021/08/31 00:27:31;;;;;;;25.05;17.70;;;;;;;19.79;98.39;99395.22;5030847;28;20044;-46
2021/08/31 00:30:05;;;;;;;27.02;18.98;;;;;;;19.73;98.57;99391.25;5015592;28;20048;-44
2021/08/31 00:32:31;;;;;;;;;;;;;;;19.81;98.67;99398.59;5040162;28;20045;-42
2021/08/31 00:34:57;;;;;;;28.52;18.25;;;;;;;19.72;98.06;99379.03;5033012;28;20433;-44
2021/08/31 00:37:32;;;;;;;27.30;18.90;;;;;;;19.74;97.80;99389.44;5033180;28;20080;-44
2021/08/31 00:39:57;;;;;;;27.17;18.38;;;;;;;19.77;98.06;99402.44;5031480;28;20112;-44
2021/08/31 00:42:23;;;;;;;26.30;18.52;;;;;;;19.77;98.46;99384.81;5014202;28;20044;-44
2021/08/31 00:44:49;;;;;;;30.55;19.00;;;;;;;19.64;99.12;99349.75;5030894;28;20073;-44
2021/08/31 00:47:15;;;;;;;33.65;21.27;;;;;;;19.63;100.00;99358.63;5031136;28;20056;-43
2021/08/31 00:49:40;;;;;;;34.25;21.48;;;;;;;19.59;100.00;99366.88;5035255;28;20143;-45
2021/08/31 00:52:06;;;;;;;33.70;20.52;;;;;;;19.56;100.00;99369.78;5035503;28;20059;-45
2021/08/31 00:54:33;;;;;;;28.88;19.55;;;;;;;19.54;100.00;99361.97;5035668;28;20076;-46
2021/08/31 00:57:03;;;;;;;33.10;20.85;;;;;;;19.50;100.00;99354.41;5014069;28;20164;-44
2021/08/31 00:59:30;;;;;;;32.20;21.27;;;;;;;19.46;100.00;99353.81;5031776;28;20033;-43
2021/08/31 01:01:56;;;;;;;33.80;21.35;;;;;;;19.43;100.00;99352.22;5030850;28;20092;-44
2021/08/31 01:04:27;;;;;;;32.25;21.75;;;;;;;19.40;100.00;99343.69;5031528;28;20505;-47
2021/08/31 01:06:53;;;;;;;33.38;20.10;;;;;;;19.36;100.00;99335.19;5032359;28;20604;-46
2021/08/31 01:09:26;;;;;;;29.70;20.58;;;;;;;19.34;100.00;99318.63;5029775;28;20091;-46
2021/08/31 01:11:53;;;;;;;31.08;21.00;;;;;;;19.32;100.00;99315.25;5030720;28;20053;-43
2021/08/31 01:14:20;;;;;;;29.25;20.27;;;;;;;19.28;100.00;99324.38;5030200;28;20041;-43
2021/08/31 01:16:46;;;;;;;29.85;20.52;;;;;;;19.27;100.00;99335.03;5029929;28;20460;-43
2021/08/31 01:19:13;;;;;;;32.90;21.38;;;;;;;19.25;100.00;99340.44;5032920;28;20592;-43
2021/08/31 01:21:39;;;;;;;34.05;21.60;;;;;;;19.27;100.00;99345.56;5040216;28;20068;-44
2021/08/31 01:24:05;;;;;;;31.67;20.55;;;;;;;19.27;100.00;99349.03;5031282;28;20091;-44
2021/08/31 01:26:31;;;;;;;30.05;20.55;;;;;;;19.27;100.00;99359.59;5031289;28;20102;-47
2021/08/31 01:28:59;;;;;;;35.33;21.00;;;;;;;19.23;100.00;99355.50;5030996;28;20096;-45
2021/08/31 01:31:27;;;;;;;;;;;;;;;19.29;100.00;99355.06;5031385;28;20099;-45
2021/08/31 01:33:54;;;;;;;28.92;19.80;;;;;;;19.28;100.00;99371.81;5030834;28;20450;-45
2021/08/31 01:36:22;;;;;;;30.55;19.55;;;;;;;19.29;100.00;99365.59;5029087;28;20033;-46
2021/08/31 01:38:50;;;;;;;28.67;19.85;;;;;;;19.31;100.00;99368.13;5040194;28;20037;-44
2021/08/31 01:41:16;;;;;;;29.73;19.58;;;;;;;19.31;100.00;99354.94;5046361;28;20068;-44
2021/08/31 01:43:42;;;;;;;31.17;20.15;;;;;;;19.29;100.00;99343.66;5045514;28;20892;-44
2021/08/31 01:46:08;;;;;;;34.13;20.38;;;;;;;19.29;100.00;99356.84;5030819;28;20128;-46
2021/08/31 01:48:34;;;;;;;29.98;20.15;;;;;;;19.29;100.00;99373.50;5029920;28;20084;-44
2021/08/31 01:51:00;;;;;;;32.35;20.13;;;;;;;19.29;100.00;99376.13;5030294;28;20076;-46
2021/08/31 01:53:26;;;;;;;33.00;21.10;;;;;;;19.29;100.00;99362.13;5030083;28;20052;-45
2021/08/31 01:55:51;;;;;;;31.00;20.40;;;;;;;19.30;100.00;99364.66;5035230;28;20065;-46
2021/08/31 01:58:17;;;;;;;35.53;22.55;;;;;;;19.30;100.00;99364.66;5030597;28;20110;-45
2021/08/31 02:00:43;;;;;;;34.33;21.17;;;;;;;19.23;100.00;99349.41;5030150;28;20102;-45
2021/08/31 02:03:09;;;;;;;31.42;20.13;;;;;;;19.30;100.00;99362.00;5028754;28;20043;-44
2021/08/31 02:05:34;;;;;;;34.30;21.20;;;;;;;19.27;100.00;99358.75;5030685;28;20042;-46
2021/08/31 02:08:00;;;;;;;34.22;19.95;;;;;;;19.27;100.00;99361.38;5034486;28;20037;-45
2021/08/31 02:10:26;;;;;;;31.73;20.52;;;;;;;19.17;100.00;99345.41;5029231;28;20042;-45
2021/08/31 02:12:52;;;;;;;30.60;18.98;;;;;;;19.25;100.00;99368.59;5038019;28;20065;-45
2021/08/31 02:15:18;;;;;;;32.50;19.38;;;;;;;19.23;100.00;99371.31;5030232;28;20067;-44
2021/08/31 02:17:43;;;;;;;36.15;19.35;;;;;;;19.22;100.00;99382.81;5028819;28;20049;-42
2021/08/31 02:20:10;;;;;;;29.45;19.13;;;;;;;19.12;100.00;99367.81;5028926;28;20033;-44
2021/08/31 02:22:37;;;;;;;30.77;20.23;;;;;;;19.24;100.00;99383.56;5029800;28;20029;-43
2021/08/31 02:25:03;;;;;;;30.73;19.23;;;;;;;19.25;100.00;99384.41;5030285;28;20501;-45
2021/08/31 02:27:28;;;;;;;29.30;18.45;;;;;;;19.24;100.00;99385.34;5029970;28;20606;-44
2021/08/31 02:29:54;;;;;;;30.35;18.92;;;;;;;19.23;100.00;99379.22;5029889;28;20134;-44
2021/08/31 02:32:20;;;;;;;31.92;19.10;;;;;;;19.22;100.00;99390.72;5029056;28;20037;-45
2021/08/31 02:34:46;;;;;;;29.02;18.55;;;;;;;19.10;100.00;99369.72;5029411;28;20499;-44
2021/08/31 02:37:11;;;;;;;27.15;18.13;;;;;;;19.19;100.00;99403.31;5030621;28;20230;-43
2021/08/31 02:39:37;;;;;;;30.08;19.13;;;;;;;19.21;100.00;99409.31;5045621;28;20029;-46
2021/08/31 02:42:03;;;;;;;27.52;18.05;;;;;;;19.23;100.00;99418.78;5029207;28;20048;-46
2021/08/31 02:44:29;;;;;;;30.65;18.60;;;;;;;19.24;100.00;99417.81;5028875;28;20049;-45
2021/08/31 02:46:54;;;;;;;29.02;18.90;;;;;;;19.24;100.00;99422.25;5043405;28;20045;-44
2021/08/31 02:49:20;;;;;;;31.63;19.55;;;;;;;19.26;100.00;99423.81;5029601;28;20077;-43
2021/08/31 02:51:46;;;;;;;29.13;18.95;;;;;;;19.27;100.00;99424.66;5029414;28;20067;-43
2021/08/31 02:54:11;;;;;;;36.20;20.13;;;;;;;19.27;100.00;99422.00;5029177;28;20477;-43
2021/08/31 02:56:37;;;;;;;29.35;18.45;;;;;;;19.27;100.00;99422.84;5032242;28;20049;-60
2021/08/31 02:59:03;;;;;;;39.63;20.27;;;;;;;19.25;100.00;99422.16;5039337;28;20048;-50
2021/08/31 03:01:32;;;;;;;40.70;20.23;;;;;;;19.24;100.00;99404.66;5032956;28;20060;-53
2021/08/31 03:03:59;;;;;;;35.65;20.55;;;;;;;19.22;100.00;99403.91;5033733;28;20150;-50
2021/08/31 03:06:26;;;;;;;38.97;20.70;;;;;;;19.22;100.00;99406.53;5034124;28;20041;-49
2021/08/31 03:08:52;;;;;;;34.30;21.15;;;;;;;19.19;100.00;99409.41;5034074;28;20044;-45
2021/08/31 03:11:18;;;;;;;31.73;19.60;;;;;;;19.17;100.00;99398.13;5033468;28;20044;-47
2021/08/31 03:13:44;;;;;;;28.95;19.02;;;;;;;19.18;100.00;99388.44;5032122;28;20057;-47
2021/08/31 03:16:09;;;;;;;27.10;16.40;;;;;;;19.18;100.00;99391.06;5033268;28;20038;-47
2021/08/31 03:18:35;;;;;;;31.45;19.02;;;;;;;19.17;100.00;99399.94;5033445;28;20068;-46
2021/08/31 03:21:01;;;;;;;29.85;17.85;;;;;;;19.16;100.00;99399.06;5033622;28;20045;-48
2021/08/31 03:23:27;;;;;;;26.85;16.73;;;;;;;19.15;100.00;99405.34;5033304;28;20501;-45
2021/08/31 03:25:52;;;;;;;25.50;16.50;;;;;;;19.16;100.00;99395.59;5043265;28;20063;-45
2021/08/31 03:28:18;;;;;;;28.48;17.40;;;;;;;19.15;100.00;99388.69;5015753;28;20046;-48
2021/08/31 03:30:44;;;;;;;25.90;16.63;;;;;;;19.14;100.00;99395.75;5032680;28;20045;-48
2021/08/31 03:33:10;;;;;;;26.52;16.15;;;;;;;19.14;100.00;99382.56;5033298;28;20091;-48
2021/08/31 03:35:36;;;;;;;25.10;15.73;;;;;;;19.16;100.00;99380.63;5033069;28;20037;-48
2021/08/31 03:38:01;;;;;;;29.05;16.63;;;;;;;19.14;100.00;99376.44;5033103;28;20037;-46
2021/08/31 03:40:29;;;;;;;23.10;15.77;;;;;;;19.12;100.00;99383.63;5032612;28;20042;-47
2021/08/31 03:42:57;;;;;;;24.08;14.93;;;;;;;19.11;100.00;99376.66;5033337;28;20037;-48
2021/08/31 03:45:23;;;;;;;25.07;14.43;;;;;;;19.11;100.00;99381.94;5034992;28;20133;-46
2021/08/31 03:47:48;;;;;;;23.27;14.60;;;;;;;19.10;100.00;99373.22;5049931;28;20041;-47
2021/08/31 03:50:15;;;;;;;20.52;13.88;;;;;;;19.04;100.00;99369.22;5051471;28;20085;-46
2021/08/31 03:52:41;;;;;;;23.17;14.57;;;;;;;19.08;100.00;99364.56;5034060;28;20073;-52
2021/08/31 03:55:08;;;;;;;19.95;13.00;;;;;;;19.10;100.00;99346.00;5032614;28;20076;-46
2021/08/31 03:57:33;;;;;;;22.52;13.48;;;;;;;19.03;100.00;99321.91;5032594;28;20041;-46
2021/08/31 03:59:59;;;;;;;20.23;13.77;;;;;;;19.13;100.00;99322.06;5040933;28;20041;-48
2021/08/31 04:02:25;;;;;;;22.33;14.20;;;;;;;19.14;100.00;99329.00;5033843;28;20461;-47
2021/08/31 04:04:50;;;;;;;19.85;13.23;;;;;;;19.01;100.00;99311.47;5032805;28;20420;-47
2021/08/31 04:07:19;;;;;;;21.17;14.45;;;;;;;19.13;100.00;99324.69;5039693;28;20447;-51
2021/08/31 04:09:45;;;;;;;25.73;15.77;;;;;;;19.14;99.88;99329.84;5037934;28;20476;-45
2021/08/31 04:12:10;;;;;;;22.42;15.15;;;;;;;19.16;99.63;99330.56;5031991;28;20057;-46
2021/08/31 04:14:36;;;;;;;26.85;16.10;;;;;;;19.18;99.31;99330.44;5031390;28;20064;-48
2021/08/31 04:17:02;;;;;;;30.90;17.58;;;;;;;19.19;99.33;99329.50;5031369;28;20099;-46
2021/08/31 04:19:27;;;;;;;28.02;16.17;;;;;;;19.20;99.33;99332.03;5032256;28;20087;-45
2021/08/31 04:21:53;;;;;;;30.40;16.70;;;;;;;19.22;99.38;99343.28;5032101;28;20102;-47
2021/08/31 04:24:19;;;;;;;22.52;15.15;;;;;;;19.20;99.68;99336.47;5031831;28;20047;-46
2021/08/31 04:26:45;;;;;;;23.80;16.35;;;;;;;19.23;100.00;99344.97;5037031;28;20536;-46
2021/08/31 04:29:10;;;;;;;31.48;17.40;;;;;;;19.24;99.13;99336.13;5032082;28;20604;-50
2021/08/31 04:31:36;;;;;;;37.20;19.75;;;;;;;19.28;98.63;99323.53;5031784;28;20037;-46
2021/08/31 04:34:02;;;;;;;27.67;16.92;;;;;;;19.33;98.14;99326.66;5032086;28;20041;-45
2021/08/31 04:36:28;;;;;;;27.13;17.38;;;;;;;19.37;97.06;99326.31;5044704;28;20095;-47
2021/08/31 04:38:53;;;;;;;46.70;25.60;;;;;;;19.40;96.83;99341.06;5032983;28;20065;-45
2021/08/31 04:41:20;;;;;;;34.88;19.92;;;;;;;19.38;96.47;99324.50;5030582;28;20041;-46
2021/08/31 04:43:45;;;;;;;42.97;22.67;;;;;;;19.43;96.00;99325.84;5031911;28;20466;-50
2021/08/31 04:46:11;;;;;;;29.73;18.58;;;;;;;19.50;95.26;99322.78;5031944;28;20048;-46
2021/08/31 04:48:38;;;;;;;29.40;18.17;;;;;;;19.59;95.07;99332.59;5027147;28;20440;-47
2021/08/31 04:51:04;;;;;;;38.40;21.05;;;;;;;19.61;94.75;99323.63;5037533;28;20505;-46
2021/08/31 04:53:30;;;;;;;30.83;18.50;;;;;;;19.62;94.63;99322.69;5031251;28;20052;-45
2021/08/31 04:55:56;;;;;;;29.75;17.88;;;;;;;19.64;94.29;99322.53;5030115;28;20048;-47
2021/08/31 04:58:21;;;;;;;30.10;18.17;;;;;;;19.65;93.66;99324.22;5035062;28;20131;-45
2021/08/31 05:00:47;;;;;;;24.98;16.38;;;;;;;19.71;93.51;99323.75;5046429;28;20140;-50
2021/08/31 05:03:13;;;;;;;27.75;17.70;;;;;;;19.64;93.76;99310.19;5035322;28;20057;-45
2021/08/31 05:05:41;;;;;;;22.85;15.40;;;;;;;19.75;93.98;99322.56;5031103;28;20473;-47
2021/08/31 05:08:06;;;;;;;28.02;17.38;;;;;;;19.76;93.60;99314.53;5046915;28;20041;-47
2021/08/31 05:10:32;;;;;;;30.30;17.67;;;;;;;19.79;93.19;99316.91;5044875;28;20037;-47
2021/08/31 05:12:58;;;;;;;22.13;15.50;;;;;;;19.70;92.63;99295.69;5031629;28;20060;-46
2021/08/31 05:15:24;;;;;;;22.33;15.27;;;;;;;19.87;92.11;99326.88;5050004;28;20044;-46
2021/08/31 05:17:49;;;;;;;21.63;14.65;;;;;;;19.85;91.43;99326.16;5040900;28;20088;-47
2021/08/31 05:20:15;;;;;;;28.17;16.25;;;;;;;19.73;90.67;99309.47;5030184;28;20171;-47
2021/08/31 05:22:41;;;;;;;22.42;14.80;;;;;;;19.84;90.47;99319.19;5028943;28;20044;-49
2021/08/31 05:25:07;;;;;;;21.40;14.63;;;;;;;19.87;90.41;99319.81;5029959;28;20527;-47
2021/08/31 05:27:33;;;;;;;20.10;14.02;;;;;;;19.87;90.00;99317.16;5040394;28;20052;-46
2021/08/31 05:29:58;;;;;;;24.75;14.93;;;;;;;19.86;89.37;99315.50;5031636;28;20038;-46
2021/08/31 05:32:25;;;;;;;20.13;14.23;;;;;;;19.84;89.12;99322.66;5034425;28;20037;-46
2021/08/31 05:34:50;;;;;;;22.42;14.43;;;;;;;19.85;89.38;99328.78;5038845;28;20382;-47
2021/08/31 05:37:16;;;;;;;19.55;14.40;;;;;;;19.84;89.81;99313.91;5031116;28;20053;-49
2021/08/31 05:39:42;;;;;;;21.40;14.98;;;;;;;19.84;90.01;99304.19;5029044;28;20037;-45
2021/08/31 05:42:09;;;;;;;19.90;14.20;;;;;;;19.82;89.32;99300.88;5028408;28;20034;-45
2021/08/31 05:44:36;;;;;;;25.58;15.15;;;;;;;19.84;88.81;99306.00;5012762;28;20041;-46
2021/08/31 05:47:03;;;;;;;26.65;14.35;;;;;;;19.87;88.42;99306.63;5012929;28;20831;-46
2021/08/31 05:49:30;;;;;;;20.40;15.23;;;;;;;19.87;88.42;99290.78;5051889;28;20067;-49
2021/08/31 05:51:59;;;;;;;21.90;15.20;;;;;;;19.91;88.52;99287.88;5070441;28;20127;-47
2021/08/31 05:54:27;;;;;;;24.17;15.57;;;;;;;20.01;88.28;99304.69;5070182;28;20070;-45
2021/08/31 05:56:53;;;;;;;22.85;14.93;;;;;;;19.96;88.24;99297.13;5069886;28;20046;-48
2021/08/31 05:59:19;;;;;;;24.08;15.88;;;;;;;20.09;88.17;99307.56;5030349;28;20105;-45
2021/08/31 06:01:46;;;;;;;26.15;17.23;;;;;;;20.10;87.88;99304.78;5041499;28;20123;-47
2021/08/31 06:04:12;;;;;;;24.05;17.73;;;;;;;20.13;87.22;99298.44;5034729;28;20041;-47
2021/08/31 06:06:38;;;;;;;28.27;19.33;;;;;;;20.16;86.54;99303.47;5070162;28;20053;-48
2021/08/31 06:09:05;;;;;;;25.02;17.73;;;;;;;20.20;86.06;99292.53;5048490;28;20504;-51
2021/08/31 06:11:35;;;;;;;27.73;18.23;;;;;;;20.18;85.64;99283.91;5055907;28;20151;-47
2021/08/31 06:14:01;;;;;;;27.23;19.27;;;;;;;20.22;84.99;99281.84;5038226;28;20043;-48
2021/08/31 06:16:27;;;;;;;29.30;18.60;;;;;;;20.24;84.42;99288.69;5038284;28;20127;-45
2021/08/31 06:18:52;;;;;;;30.83;18.73;;;;;;;20.37;83.82;99295.66;5057482;28;20057;-46
2021/08/31 06:21:18;;;;;;;27.90;20.27;;;;;;;20.37;83.56;99283.28;5050945;28;20128;-48
2021/08/31 06:23:44;;;;;;;27.08;19.25;;;;;;;20.54;83.07;99292.50;5045915;28;20041;-49
2021/08/31 06:26:10;;;;;;;29.25;19.60;;;;;;;20.54;82.18;99280.13;5049426;28;20033;-48
2021/08/31 06:28:36;;;;;;;25.38;18.52;;;;;;;20.63;81.83;99275.88;5042851;28;20044;-56
2021/08/31 06:31:02;;;;;;;31.10;21.88;;;;;;;20.82;81.22;99289.28;5040232;28;20048;-55
2021/08/31 06:33:29;;;;;;;28.23;20.05;;;;;;;20.80;80.63;99266.56;5030357;28;20127;-54
2021/08/31 06:35:55;;;;;;;29.58;19.65;;;;;;;21.00;80.36;99281.59;5049446;28;20148;-48
2021/08/31 06:38:21;;;;;;;24.10;18.65;;;;;;;20.96;80.07;99266.97;5042883;28;20178;-47
2021/08/31 06:40:46;;;;;;;26.48;18.60;;;;;;;21.07;79.93;99283.63;5047261;28;20110;-47
2021/08/31 06:43:12;;;;;;;27.88;18.58;;;;;;;21.08;79.49;99268.59;5027931;28;20439;-46
2021/08/31 06:45:38;;;;;;;27.00;17.25;;;;;;;21.20;79.26;99283.44;5051452;28;20041;-45
2021/08/31 06:48:04;;;;;;;30.33;18.02;;;;;;;21.21;78.65;99278.97;5046639;28;20044;-47
2021/08/31 06:50:30;;;;;;;29.80;16.88;;;;;;;21.28;78.10;99281.00;5045855;28;20045;-53
2021/08/31 06:52:56;;;;;;;22.75;16.75;;;;;;;21.34;77.99;99283.13;5041682;28;20107;-60
2021/08/31 06:55:21;;;;;;;21.75;16.75;;;;;;;21.40;77.61;99272.03;5028426;28;20041;-58
2021/08/31 06:57:47;;;;;;;21.25;15.70;;;;;;;21.33;77.24;99262.09;5033506;28;20592;-60
2021/08/31 07:00:13;;;;;;;27.42;16.15;;;;;;;21.47;76.98;99278.44;5024960;28;20103;-60
2021/08/31 07:02:39;;;;;;;29.15;16.92;;;;;;;21.55;76.46;99270.72;5041130;28;20401;-59
2021/08/31 07:05:05;;;;;;;25.40;15.73;;;;;;;21.60;76.29;99274.75;5044428;28;20129;-60
2021/08/31 07:07:31;;;;;;;21.88;15.48;;;;;;;21.68;75.71;99274.91;5045040;28;20044;-61
2021/08/31 07:09:57;;;;;;;49.55;17.25;;;;;;;21.72;75.33;99266.59;5039146;28;20037;-60
2021/08/31 07:12:22;;;;;;;31.05;17.13;;;;;;;21.83;74.77;99266.50;5046565;28;20181;-56
2021/08/31 07:14:48;;;;;;;23.02;14.93;;;;;;;21.91;74.01;99268.47;5046457;28;20088;-57
2021/08/31 07:17:15;;;;;;;19.30;14.35;;;;;;;21.93;73.27;99262.06;5037739;28;20065;-57
2021/08/31 07:19:41;;;;;;;22.33;14.05;;;;;;;22.34;71.36;99253.16;5028966;28;20290;-54
2021/08/31 07:22:09;;;;;;;19.45;13.63;;;;;;;24.34;64.01;99257.28;5041190;28;20041;-57
2021/08/31 07:24:35;;;;;;;24.02;12.90;;;;;;;25.97;58.45;99251.34;5043464;28;20052;-58
2021/08/31 07:27:04;;;;;;;20.85;13.40;;;;;;;27.32;54.39;99250.03;5029652;28;20582;-56
2021/08/31 07:29:29;;;;;;;18.05;13.43;;;;;;;28.28;51.69;99245.38;5046807;28;20037;-58
2021/08/31 07:31:55;;;;;;;21.02;12.52;;;;;;;28.83;49.77;99239.84;5043295;28;20044;-58
2021/08/31 07:34:20;;;;;;;14.50;11.32;;;;;;;29.43;47.44;99253.19;5030011;28;20231;-59
2021/08/31 07:36:46;;;;;;;18.77;12.52;;;;;;;29.35;47.01;99244.41;5034622;28;20056;-52
2021/08/31 07:39:12;;;;;;;14.00;11.35;;;;;;;28.99;47.05;99231.69;5026790;28;20528;-57
2021/08/31 07:41:39;;;;;;;21.02;16.67;;;;;;;28.61;48.08;99232.63;5028936;28;20140;-58
2021/08/31 07:44:05;;;;;;;18.80;12.15;;;;;;;28.66;47.62;99214.19;5027933;28;20129;-57
2021/08/31 07:46:31;;;;;;;14.52;11.32;;;;;;;29.09;46.90;99233.25;5030273;28;20251;-58
2021/08/31 07:48:57;;;;;;;16.90;10.52;;;;;;;28.35;48.25;99227.63;5049149;28;20505;-54
2021/08/31 07:51:22;;;;;;;17.20;13.45;;;;;;;27.57;49.70;99221.47;5051222;28;20051;-51
2021/08/31 07:53:49;;;;;;;23.00;12.82;;;;;;;26.98;51.19;99227.06;5044847;28;20052;-56
2021/08/31 07:56:14;;;;;;;17.88;12.32;;;;;;;26.72;51.82;99226.38;5032300;28;20500;-57
2021/08/31 07:58:40;;;;;;;15.48;12.52;;;;;;;26.38;52.77;99229.16;5032564;28;20049;-58
2021/08/31 08:01:06;;;;;;;17.17;12.02;;;;;;;26.08;53.22;99209.25;5031831;28;20528;-55
2021/08/31 08:03:32;;;;;;;17.13;12.25;;;;;;;25.96;54.14;99220.41;5052282;28;20133;-52
2021/08/31 08:05:57;;;;;;;28.25;17.85;;;;;;;25.92;54.17;99227.84;5050830;28;20040;-58
2021/08/31 08:08:23;;;;;;;23.63;17.33;;;;;;;26.31;53.40;99214.84;5066709;28;20054;-57
2021/08/31 08:10:50;;;;;;;20.17;12.85;;;;;;;26.86;52.59;99231.03;5051003;28;20051;-57
2021/08/31 08:13:17;;;;;;;21.27;13.15;;;;;;;27.14;51.40;99223.53;5047666;28;20075;-58
2021/08/31 08:15:42;;;;;;;18.20;12.10;;;;;;;28.22;48.89;99224.69;5053192;28;20463;-58
2021/08/31 08:18:08;;;;;;;25.90;13.68;;;;;;;29.43;46.17;99222.88;5039607;28;20048;-56
2021/08/31 08:20:34;;;;;;;16.80;13.02;;;;;;;29.93;44.66;99218.63;5049683;28;20075;-57
2021/08/31 08:23:00;;;;;;;17.27;12.88;;;;;;;30.51;43.07;99214.97;5045387;28;20064;-55
2021/08/31 08:25:25;;;;;;;13.07;10.93;;;;;;;31.31;41.61;99225.34;5038463;28;20052;-56
2021/08/31 08:27:51;;;;;;;14.43;11.80;;;;;;;32.10;40.13;99207.78;5049077;28;20049;-54
2021/08/31 08:30:17;;;;;;;22.15;13.57;;;;;;;32.73;38.93;99219.97;5045414;28;20037;-55
2021/08/31 08:32:42;;;;;;;19.48;13.00;;;;;;;33.48;37.22;99209.78;5039576;28;20417;-54
2021/08/31 08:35:11;;;;;;;19.95;12.25;;;;;;;34.18;35.97;99202.69;5062896;28;20036;-53
2021/08/31 08:37:37;;;;;;;16.90;12.45;;;;;;;34.79;34.57;99197.53;5070255;28;20465;-55
2021/08/31 08:40:04;;;;;;;14.43;11.77;;;;;;;35.39;33.68;99206.75;5063214;28;20128;-53
2021/08/31 08:42:30;;;;;;;15.20;12.00;;;;;;;35.97;32.67;99201.72;5066481;28;20512;-53
2021/08/31 08:44:56;;;;;;;17.50;12.90;;;;;;;36.35;31.71;99190.63;5045721;28;20128;-51
2021/08/31 08:47:22;;;;;;;26.77;15.13;;;;;;;36.72;31.42;99175.06;5050795;28;20128;-56
2021/08/31 08:49:49;;;;;;;20.13;14.13;;;;;;;36.91;30.85;99184.72;5049874;28;20412;-57
2021/08/31 08:52:15;;;;;;;14.98;11.50;;;;;;;37.07;30.24;99180.50;5070872;28;20460;-58
2021/08/31 08:54:42;;;;;;;13.10;11.65;;;;;;;37.21;30.24;99178.41;5027190;28;20068;-58
2021/08/31 08:57:09;;;;;;;14.52;12.05;;;;;;;37.15;30.14;99173.94;5050212;28;20045;-57
2021/08/31 08:59:38;;;;;;;16.08;12.23;;;;;;;37.24;29.99;99165.19;5031284;28;20413;-58
2021/08/31 09:02:04;;;;;;;18.75;12.02;;;;;;;37.68;29.37;99162.91;5031438;28;20041;-58
2021/08/31 09:04:48;;;;;;;14.80;12.82;;;;;;;38.15;28.71;99169.00;5029840;28;20099;-58
2021/08/31 09:07:25;;;;;;;17.38;12.90;;;;;;;38.37;28.06;99160.94;5032537;28;20091;-58
2021/08/31 09:10:11;;;;;;;17.85;15.48;;;;;;;38.69;28.08;99163.97;5031378;28;20041;-60
2021/08/31 09:12:37;;;;;;;16.90;14.40;;;;;;;39.06;27.36;99162.38;5030394;28;20053;-62
2021/08/31 09:15:29;;;;;;;13.32;12.02;;;;;;;39.13;26.63;99156.78;5031472;28;20128;-62
2021/08/31 09:18:07;;;;;;;14.77;12.38;;;;;;;39.43;26.18;99159.13;5038632;28;20045;-57
2021/08/31 09:20:35;;;;;;;15.82;12.68;;;;;;;39.67;26.12;99158.63;5049555;28;20127;-60
2021/08/31 09:23:08;;;;;;;17.05;11.77;;;;;;;39.82;25.75;99149.84;5043478;28;20053;-61
2021/08/31 09:25:40;;;;;;;13.85;12.13;;;;;;;40.00;26.14;99148.66;5044378;28;20540;-59
2021/08/31 09:28:26;;;;;;;13.93;12.48;;;;;;;40.27;25.43;99133.16;5036106;28;20512;-65
2021/08/31 09:31:05;;;;;;;17.15;13.30;;;;;;;40.83;24.83;99139.88;5034445;28;20153;-69
2021/08/31 09:33:33;;;;;;;15.43;11.40;;;;;;;41.10;24.33;99115.25;5029596;28;20041;-63
2021/08/31 09:36:24;;;;;;;17.48;12.90;;;;;;;41.08;24.17;99138.44;5040107;28;20065;-64
2021/08/31 09:38:52;;;;;;;13.73;12.30;;;;;;;41.11;24.64;99132.44;5047507;28;20075;-64
2021/08/31 09:41:26;;;;;;;13.98;12.48;;;;;;;41.28;24.27;99130.38;5047278;28;20135;-64
2021/08/31 09:43:52;;;;;;;15.98;11.77;;;;;;;41.62;23.53;99133.53;5047457;28;20037;-63
2021/08/31 09:46:19;;;;;;;16.63;14.15;;;;;;;41.37;23.65;99135.03;5031425;28;20049;-69
2021/08/31 09:48:45;;;;;;;16.33;13.07;;;;;;;41.33;23.37;99120.31;5032635;28;20067;-66
2021/08/31 09:51:12;;;;;;;16.27;12.25;;;;;;;41.72;23.45;99134.38;5048357;28;20037;-61
2021/08/31 09:53:38;;;;;;;13.55;11.40;;;;;;;42.14;23.22;99133.41;5041765;28;20054;-64
2021/08/31 09:56:06;;;;;;;14.73;11.90;;;;;;;42.54;22.27;99130.72;5031470;28;20460;-71
2021/08/31 09:58:39;;;;;;;14.80;12.32;;;;;;;42.73;21.59;99131.00;5047140;28;20079;-68
2021/08/31 10:01:05;;;;;;;14.00;12.13;;;;;;;42.79;21.44;99134.56;5040093;28;20048;-67
2021/08/31 10:03:30;;;;;;;12.45;10.85;;;;;;;42.93;21.29;99130.97;5046458;28;20056;-63
2021/08/31 10:05:59;;;;;;;15.70;12.77;;;;;;;42.95;21.36;99127.94;5044137;28;20457;-67
2021/08/31 10:08:25;;;;;;;14.35;11.75;;;;;;;42.68;21.43;99128.25;5039992;28;20037;-68
2021/08/31 10:10:53;;;;;;;14.07;12.32;;;;;;;42.77;21.36;99129.34;5031438;28;20049;-67
2021/08/31 10:13:22;;;;;;;15.43;13.00;;;;;;;43.01;21.02;99121.38;5043985;28;20491;-74
2021/08/31 10:15:54;;;;;;;28.50;15.15;;;;;;;43.57;20.79;99121.22;5046670;28;20396;-67
2021/08/31 10:18:21;;;;;;;29.02;16.10;;;;;;;43.86;20.81;99124.91;5043493;28;20052;-66
2021/08/31 10:21:06;;;;;;;14.73;12.30;;;;;;;44.24;20.39;99120.53;5044380;28;20136;-69
2021/08/31 10:23:42;;;;;;;24.35;17.15;;;;;;;44.42;19.87;99110.81;5047914;28;20041;-69
2021/08/31 10:26:27;;;;;;;17.45;14.45;;;;;;;44.59;19.47;99116.72;5046744;28;20082;-69
2021/08/31 10:29:14;;;;;;;13.85;12.05;;;;;;;44.12;19.44;99120.09;5047760;28;20064;-67
2021/08/31 10:31:51;;;;;;;18.00;12.68;;;;;;;43.55;19.80;99113.28;5042541;28;20064;-67
2021/08/31 10:34:29;;;;;;;23.58;19.63;;;;;;;43.67;20.00;99116.50;5042449;28;20055;-70
2021/08/31 10:37:15;;;;;;;15.00;13.60;;;;;;;43.78;20.12;99120.00;5043284;28;20041;-71
2021/08/31 10:39:42;;;;;;;13.35;12.00;;;;;;;43.02;19.58;99118.38;5038834;28;20064;-66
2021/08/31 10:42:09;;;;;;;13.00;11.43;;;;;;;42.17;20.45;99111.00;5047663;28;20049;-69
2021/08/31 10:44:42;;;;;;;12.75;11.45;;;;;;;42.21;20.75;99107.44;5042221;28;20420;-68
2021/08/31 10:47:14;;;;;;;16.50;12.45;;;;;;;42.14;20.24;99103.34;5041379;28;20041;-66
2021/08/31 10:49:58;;;;;;;14.57;11.68;;;;;;;41.59;21.20;99098.59;5035340;28;20049;-66
2021/08/31 10:52:50;;;;;;;15.50;11.75;;;;;;;42.11;20.75;99092.97;5045113;28;20786;-66
2021/08/31 10:55:25;;;;;;;14.18;11.82;;;;;;;42.84;20.56;99093.50;5042202;28;21118;-67
2021/08/31 10:57:55;;;;;;;14.35;12.85;;;;;;;43.20;20.56;99097.81;5044787;28;20405;-69
2021/08/31 11:00:21;;;;;;;23.40;20.13;;;;;;;43.40;20.20;99091.41;5046996;28;20029;-69
2021/08/31 11:02:47;;;;;;;16.13;12.23;;;;;;;43.75;19.93;99095.94;5041506;28;20421;-66
2021/08/31 11:05:18;;;;;;;15.95;13.13;;;;;;;43.35;20.22;99095.00;5030027;28;20513;-66
2021/08/31 11:07:49;;;;;;;15.93;11.30;;;;;;;43.30;20.72;99089.53;5041350;28;20065;-68
2021/08/31 11:10:35;;;;;;;16.27;12.75;;;;;;;43.88;20.03;99087.09;5037940;28;20045;-71
2021/08/31 11:13:16;;;;;;;14.63;13.13;;;;;;;44.17;20.03;99074.28;5035077;28;20062;-66
2021/08/31 11:15:49;;;;;;;14.35;12.95;;;;;;;44.33;19.82;99079.66;5046699;28;20037;-67